Малое Исаково

Карта отелей и гостиниц, располагающихся рядом с аэропортом Малое Исаково :

Малое Исаково
Калининград
Калининградская область 54° 43' 29.3412" N, 20° 34' 24.4812" E
Код аэродрома ИКАО
ZEZ2
Код аэродрома RU
ЗЕЗ2
Координаты
N54.72482° E020.57347°
Превышение над уровнем моря
21
Основная полоса
01R/19L
Курс магнитный
007,5/187,5
Длина основной ВПП
970
Ширина основной ВПП
20
Покрытие основной ВПП
Нетвёрдое (гравий)
Освещение ВПП
Нет
Тип: 
Аэродром
Класс аэродрома: 
Принадлежность: 
ДОСААФ
Статус: 
Действующий
Сайт: 
http://koenig-ask.ru
E-mail аэродрома: 
devau39@mail.ru, baltika555@mail.ru
Страна: 
Россия
Регион: 
Калининградская область
Город: 
Калининград
Дополнительная информация: 
Оператор: Калининградский АСК ДОСААФ России. Выброска парашютистов и обзорные полёты на самолете Ан-2. Экскурсионные полёты на C-42 Ikarus. Ранее а/д именовался "Девау". ЧБУ МП ликвидирован (ПОПРАВКА НР448 ОТ 06.04.2015).

Найти трансфер

С помощью этой формы Вы можете найти трансфер из аэропорта Малое Исаково в город, аэропорт или вокзал:

Карта места

Javascript is required to view this map.

Погода в аэропортах:

Авиационная погода в Симферополе

Погода METAR: 
URFF 281300Z 13002MPS 7000 -SHRA BKN033CB OVC063 13/13 Q1006 R19/290395 NOSIG
Время наблюдения
2021-11-28T13:00:00Z
Температура C
13.0
Точка росы
13.0
Направление ветра
130
Скорость ветра (узлы)
4
Метео видимость
4.35
Явления погоды
-SHRA
Условия полета
MVFR
Аэропорт подробнее: 

Авиационная погода в Перми

Регион: 
Погода METAR: 
USPP 281300Z 19006MPS 3700 -SN BKN026 M03/M06 Q1015 RESN R21/490242 TEMPO 1000 SN BKN007 RMK QFE751
Время наблюдения
2021-11-28T13:00:00Z
Температура C
-3.0
Точка росы
-6.0
Направление ветра
190
Скорость ветра (узлы)
12
Метео видимость
2.3
Явления погоды
-SN
Условия полета
IFR
Аэропорт подробнее: 

Авиационная погода в Угольном

Регион: 
Погода METAR: 
UHMA 281300Z 02002MPS 9000 -SN FEW027 BKN038 M19/M21 Q1019 R01/////// TEMPO 3000 -SN RMK TDZ R01/02002MPS END R01/04001G02MPS QFE760/1014
Время наблюдения
2021-11-28T13:00:00Z
Температура C
-19.0
Точка росы
-21.0
Направление ветра
20
Скорость ветра (узлы)
4
Метео видимость
5.59
Явления погоды
-SN
Условия полета
VFR
Аэропорт подробнее: 

Авиационная погода в Емельяново

Регион: 
Погода METAR: 
UNKL 281300Z 25007MPS 6000 -SHSN SCT041CB M05/M08 Q1026 R29/810245 NOSIG RMK QFE743
Время наблюдения
2021-11-28T13:00:00Z
Температура C
-5.0
Точка росы
-8.0
Направление ветра
250
Скорость ветра (узлы)
14
Метео видимость
3.73
Явления погоды
-SHSN
Условия полета
MVFR
Аэропорт подробнее: